Time;durP1;ratioP1;P1;durP2;ratioP2;P2;SDS_P1;SDS_P2;PMS_P1;PMS_P2;Temp;Humidity;BMP_temperature;BMP_pressure;BME280_temperature;BME280_humidity;BME280_pressure;Samples;Min_cycle;Max_cycle;Signal;HPM_P1;HPM_P2
2021/12/20 00:01:29;;;;;;;4.18;0.88;;;6.90;82.50;;;;;;5005972;28;20502;-76
2021/12/20 00:04:05;;;;;;;1.98;0.90;;;6.90;82.40;;;;;;5009513;28;20050;-75
2021/12/20 00:06:38;;;;;;;2.53;0.93;;;6.90;82.50;;;;;;4991614;28;20049;-76
2021/12/20 00:09:14;;;;;;;3.15;1.05;;;6.90;82.50;;;;;;4950358;28;21759;-75
2021/12/20 00:12:10;;;;;;;2.40;0.80;;;6.80;82.50;;;;;;2047453;28;10024547;-76
2021/12/20 00:14:43;;;;;;;2.42;0.90;;;6.80;82.40;;;;;;3641238;28;10000996;-74
2021/12/20 00:17:13;;;;;;;0.98;0.50;;;6.80;82.50;;;;;;5027198;28;20128;-76
2021/12/20 00:19:41;;;;;;;2.97;1.00;;;6.70;82.50;;;;;;5028680;28;20053;-75
2021/12/20 00:22:08;;;;;;;2.17;0.70;;;6.70;82.40;;;;;;5028588;28;20041;-75
2021/12/20 00:24:35;;;;;;;3.22;1.02;;;6.70;82.40;;;;;;5028694;28;20068;-75
2021/12/20 00:27:05;;;;;;;1.58;0.80;;;6.70;82.40;;;;;;5028460;28;20045;-74
2021/12/20 00:29:34;;;;;;;1.55;0.80;;;6.70;82.50;;;;;;5028889;28;20522;-74
2021/12/20 00:32:02;;;;;;;1.70;0.68;;;6.70;82.40;;;;;;5028147;28;20049;-75
2021/12/20 00:34:30;;;;;;;2.03;0.90;;;6.70;82.40;;;;;;5028328;28;20070;-76
2021/12/20 00:37:03;;;;;;;1.20;0.60;;;6.60;82.40;;;;;;5028775;28;20049;-75
2021/12/20 00:42:14;;;;;;;2.83;0.90;;;6.60;82.30;;;;;;5031195;28;20114;-75
2021/12/20 00:44:42;;;;;;;2.95;1.33;;;6.50;82.50;;;;;;5029695;28;20046;-74
2021/12/20 00:47:09;;;;;;;1.92;0.60;;;6.50;82.50;;;;;;5030110;28;20041;-76
2021/12/20 00:49:36;;;;;;;2.03;0.95;;;6.50;82.50;;;;;;5029800;28;20048;-76
2021/12/20 00:52:05;;;;;;;3.20;1.15;;;6.40;82.50;;;;;;5029918;28;20042;-74
2021/12/20 00:54:32;;;;;;;2.85;0.80;;;6.50;82.50;;;;;;5029273;28;20041;-75
2021/12/20 00:56:59;;;;;;;2.17;0.85;;;6.40;82.50;;;;;;5030556;28;20055;-76
2021/12/20 00:59:25;;;;;;;1.92;0.93;;;6.40;82.50;;;;;;5030565;28;20045;-75
2021/12/20 01:01:52;;;;;;;1.48;0.60;;;6.40;82.50;;;;;;5027081;28;20042;-77
2021/12/20 01:04:19;;;;;;;3.20;1.02;;;6.40;82.60;;;;;;5030002;28;20060;-73
2021/12/20 01:06:46;;;;;;;2.55;1.00;;;6.30;82.70;;;;;;5030692;28;20045;-75
2021/12/20 01:09:14;;;;;;;1.77;0.95;;;6.30;82.80;;;;;;5029425;28;20045;-75
2021/12/20 01:11:43;;;;;;;1.83;0.73;;;6.30;82.70;;;;;;5029950;28;20038;-76
2021/12/20 01:14:11;;;;;;;1.35;0.80;;;6.30;82.80;;;;;;5012391;28;20049;-73
2021/12/20 01:16:38;;;;;;;1.33;0.70;;;6.30;82.80;;;;;;5030522;28;20049;-73
2021/12/20 01:19:05;;;;;;;1.77;0.60;;;6.20;82.80;;;;;;5029449;28;20061;-76
2021/12/20 01:21:32;;;;;;;2.67;1.02;;;6.20;82.80;;;;;;5029089;28;20504;-75
2021/12/20 01:23:59;;;;;;;2.75;0.55;;;6.20;82.90;;;;;;5029425;28;20128;-77
2021/12/20 01:26:27;;;;;;;3.28;0.90;;;6.20;82.90;;;;;;5030218;28;20418;-73
2021/12/20 01:28:54;;;;;;;2.83;0.80;;;6.20;82.80;;;;;;5029225;28;20112;-77
2021/12/20 01:31:21;;;;;;;1.58;0.70;;;6.10;82.90;;;;;;5028811;28;20046;-77
2021/12/20 01:33:48;;;;;;;1.25;0.73;;;6.10;82.90;;;;;;5030048;28;20084;-75
2021/12/20 01:36:15;;;;;;;2.08;0.80;;;6.10;83.00;;;;;;5029986;28;20052;-78
2021/12/20 01:38:42;;;;;;;2.15;0.93;;;6.10;83.00;;;;;;5027740;28;20048;-76
2021/12/20 01:41:10;;;;;;;1.40;0.73;;;6.10;83.00;;;;;;5027834;28;20077;-74
2021/12/20 01:43:39;;;;;;;2.05;0.77;;;6.10;83.10;;;;;;5027256;28;20442;-78
2021/12/20 01:46:06;;;;;;;1.50;0.90;;;6.10;83.00;;;;;;5027772;28;20484;-75
2021/12/20 01:48:35;;;;;;;3.33;0.88;;;6.10;83.20;;;;;;5028032;28;20045;-75
2021/12/20 01:53:43;;;;;;;2.55;0.80;;;6.10;83.20;;;;;;4998138;28;20057;-76
2021/12/20 01:56:11;;;;;;;1.90;0.63;;;6.10;83.30;;;;;;5029799;28;20128;-77
2021/12/20 01:58:39;;;;;;;2.80;1.10;;;6.10;83.30;;;;;;5031256;28;20495;-77
2021/12/20 02:01:20;;;;;;;1.55;0.75;;;6.10;83.30;;;;;;5010057;28;20486;-76
2021/12/20 02:03:55;;;;;;;2.58;0.60;;;6.10;83.30;;;;;;5032160;28;20049;-75
2021/12/20 02:06:27;;;;;;;2.55;1.05;;;6.10;83.40;;;;;;5030232;28;20042;-76
2021/12/20 02:08:55;;;;;;;1.77;0.82;;;6.00;83.30;;;;;;5031218;28;20057;-77
2021/12/20 02:11:22;;;;;;;2.90;1.02;;;6.10;83.20;;;;;;5031234;28;20044;-76
2021/12/20 02:13:51;;;;;;;3.45;0.90;;;6.00;83.30;;;;;;5029930;28;20137;-76
2021/12/20 02:16:18;;;;;;;1.95;1.02;;;6.00;83.30;;;;;;5031517;28;20092;-74
2021/12/20 02:18:45;;;;;;;1.95;0.80;;;6.00;83.20;;;;;;5033152;28;20049;-74
2021/12/20 02:21:14;;;;;;;2.58;0.98;;;6.10;83.20;;;;;;5033125;28;20049;-74
2021/12/20 02:23:44;;;;;;;2.53;1.00;;;6.00;83.00;;;;;;5032195;28;20576;-76
2021/12/20 02:26:14;;;;;;;2.42;1.50;;;6.00;83.00;;;;;;5031296;28;20053;-78
2021/12/20 02:28:45;;;;;;;3.03;1.40;;;6.00;82.90;;;;;;5031216;28;20037;-75
2021/12/20 02:37:13;;;;;;;4.45;0.77;;;5.90;82.90;;;;;;5031791;28;20048;-75
2021/12/20 02:39:41;;;;;;;2.65;0.93;;;5.90;83.00;;;;;;5032002;28;20037;-76
2021/12/20 02:42:11;;;;;;;4.60;1.30;;;5.90;83.00;;;;;;5031874;28;20100;-75
2021/12/20 02:44:37;;;;;;;2.33;0.80;;;5.90;83.10;;;;;;5032215;28;20440;-76
2021/12/20 02:47:14;;;;;;;2.85;1.30;;;5.90;83.10;;;;;;5013775;28;20402;-75
2021/12/20 02:49:43;;;;;;;3.25;0.90;;;5.80;83.20;;;;;;5032060;28;20127;-75
2021/12/20 02:52:12;;;;;;;3.50;0.93;;;5.80;83.30;;;;;;5032412;28;20046;-75
2021/12/20 02:54:39;;;;;;;4.63;1.13;;;5.80;83.30;;;;;;5032061;28;20071;-75
2021/12/20 02:57:06;;;;;;;3.28;0.98;;;5.90;83.40;;;;;;5030801;28;20048;-74
2021/12/20 02:59:33;;;;;;;2.90;1.02;;;5.80;83.20;;;;;;5032015;28;20134;-76
2021/12/20 03:02:02;;;;;;;3.00;1.10;;;5.90;83.20;;;;;;5029701;28;20419;-77
2021/12/20 03:04:29;;;;;;;3.17;0.75;;;5.90;83.10;;;;;;5032538;28;20521;-76
2021/12/20 03:06:58;;;;;;;4.57;1.45;;;5.90;83.00;;;;;;5029483;28;20119;-76
2021/12/20 03:09:33;;;;;;;3.45;1.10;;;5.90;82.90;;;;;;5032512;28;20124;-77
2021/12/20 03:12:00;;;;;;;3.20;1.23;;;5.80;82.90;;;;;;5032165;28;20411;-75
2021/12/20 03:14:35;;;;;;;5.28;0.88;;;5.80;83.00;;;;;;5031791;28;20045;-75
2021/12/20 03:17:02;;;;;;;2.85;0.95;;;5.80;82.90;;;;;;5031400;28;20041;-75
2021/12/20 03:19:33;;;;;;;1.83;0.98;;;5.80;82.80;;;;;;5030170;28;20522;-78
2021/12/20 03:22:02;;;;;;;3.22;0.90;;;5.70;82.90;;;;;;5029333;28;20037;-76
2021/12/20 03:24:30;;;;;;;2.72;0.80;;;5.70;82.90;;;;;;5011548;28;20418;-74
2021/12/20 03:26:57;;;;;;;1.85;0.90;;;5.70;82.90;;;;;;5028841;28;20128;-76
2021/12/20 03:29:24;;;;;;;3.70;1.30;;;5.70;82.90;;;;;;5028990;28;20049;-76
2021/12/20 03:31:51;;;;;;;2.28;0.95;;;5.70;83.10;;;;;;5027545;28;20068;-76
2021/12/20 03:34:19;;;;;;;2.10;1.10;;;5.60;83.10;;;;;;5030282;28;20459;-73
2021/12/20 03:36:47;;;;;;;2.45;0.82;;;5.60;83.10;;;;;;5028410;28;20128;-77
2021/12/20 03:39:14;;;;;;;2.08;0.68;;;5.60;83.10;;;;;;5024849;28;20060;-77
2021/12/20 03:41:42;;;;;;;2.85;1.13;;;5.60;83.00;;;;;;5026747;28;20120;-76
2021/12/20 03:44:10;;;;;;;5.45;1.15;;;5.60;82.90;;;;;;5028761;28;20683;-75
2021/12/20 03:46:38;;;;;;;2.95;1.20;;;5.50;82.90;;;;;;5027847;28;20045;-77
2021/12/20 03:49:06;;;;;;;2.67;0.98;;;5.50;82.70;;;;;;5028603;28;20091;-75
2021/12/20 03:51:34;;;;;;;2.38;1.02;;;5.40;82.60;;;;;;5029063;28;20077;-73
2021/12/20 03:54:01;;;;;;;2.65;1.20;;;5.40;82.40;;;;;;5028869;28;20041;-74
2021/12/20 03:56:30;;;;;;;2.58;1.00;;;5.30;82.30;;;;;;5028214;28;20042;-76
2021/12/20 03:58:58;;;;;;;3.13;0.90;;;5.20;82.30;;;;;;5029909;28;20041;-76
2021/12/20 04:01:26;;;;;;;2.88;1.00;;;5.20;82.20;;;;;;5028011;28;20491;-75
2021/12/20 04:03:53;;;;;;;1.75;0.70;;;5.20;82.20;;;;;;5030679;28;20053;-76
2021/12/20 04:06:21;;;;;;;3.63;1.08;;;5.20;82.20;;;;;;5030192;28;20495;-77
2021/12/20 04:08:48;;;;;;;2.35;0.88;;;5.20;82.00;;;;;;5029718;28;20141;-76
2021/12/20 04:11:15;;;;;;;4.95;1.30;;;5.10;82.00;;;;;;5029391;28;20045;-74
2021/12/20 04:13:42;;;;;;;2.03;0.90;;;5.00;81.90;;;;;;5030963;28;20064;-74
2021/12/20 04:16:11;;;;;;;2.25;1.00;;;5.00;81.90;;;;;;5029660;28;20041;-78
2021/12/20 04:18:38;;;;;;;1.88;1.02;;;5.00;81.80;;;;;;5030822;28;20049;-76
2021/12/20 04:21:05;;;;;;;1.20;0.70;;;5.00;81.80;;;;;;5030608;28;20060;-74
2021/12/20 04:23:32;;;;;;;2.35;1.05;;;4.90;81.80;;;;;;5029886;28;20073;-74
2021/12/20 04:25:59;;;;;;;4.32;1.08;;;4.90;81.60;;;;;;5030239;28;20075;-75
2021/12/20 04:28:26;;;;;;;2.55;1.38;;;4.90;81.70;;;;;;5030481;28;20052;-76
2021/12/20 04:30:53;;;;;;;3.08;1.20;;;4.80;81.60;;;;;;5030322;28;20069;-75
2021/12/20 04:33:21;;;;;;;4.25;0.93;;;4.80;81.50;;;;;;5024482;28;20049;-73
2021/12/20 04:35:48;;;;;;;2.75;1.50;;;4.80;81.50;;;;;;5029028;28;20037;-74
2021/12/20 04:38:15;;;;;;;2.85;0.60;;;4.70;81.30;;;;;;5029502;28;20127;-75
2021/12/20 04:40:43;;;;;;;4.18;1.17;;;4.70;81.30;;;;;;5029120;28;20149;-74
2021/12/20 04:43:09;;;;;;;2.08;1.08;;;4.60;81.30;;;;;;5029303;28;20041;-73
2021/12/20 04:45:37;;;;;;;5.78;1.33;;;4.60;81.30;;;;;;5029702;28;20052;-76
2021/12/20 04:48:05;;;;;;;2.95;1.00;;;4.60;81.40;;;;;;5029850;28;20037;-76
2021/12/20 04:50:33;;;;;;;2.78;0.80;;;4.60;81.40;;;;;;5029758;28;20045;-75
2021/12/20 04:53:01;;;;;;;2.22;0.77;;;4.50;81.20;;;;;;5029356;28;20156;-76
2021/12/20 04:55:31;;;;;;;3.03;0.85;;;4.50;81.10;;;;;;5029449;28;20046;-76
2021/12/20 04:58:00;;;;;;;3.72;1.00;;;4.40;81.00;;;;;;5028722;28;20520;-76
2021/12/20 05:00:33;;;;;;;4.93;1.63;;;4.40;81.10;;;;;;5025462;28;20132;-75
2021/12/20 05:03:00;;;;;;;3.67;1.17;;;4.40;81.10;;;;;;5027739;28;20124;-76
2021/12/20 05:05:29;;;;;;;1.15;0.50;;;4.40;81.10;;;;;;5028583;28;20065;-75
2021/12/20 05:07:57;;;;;;;3.85;1.55;;;4.40;80.90;;;;;;5027770;28;20410;-73
2021/12/20 05:10:31;;;;;;;4.03;0.95;;;4.30;81.00;;;;;;5028075;28;20128;-76
2021/12/20 05:13:00;;;;;;;3.33;1.13;;;4.30;81.00;;;;;;5027724;28;20495;-75
2021/12/20 05:15:30;;;;;;;3.70;0.80;;;4.30;80.80;;;;;;5027712;28;20053;-75
2021/12/20 05:17:58;;;;;;;1.92;0.88;;;4.20;81.00;;;;;;5026877;28;20453;-75
2021/12/20 05:20:26;;;;;;;3.58;1.15;;;4.20;80.90;;;;;;5028015;28;20137;-73
2021/12/20 05:22:53;;;;;;;3.13;1.40;;;4.20;80.90;;;;;;5027736;28;20033;-76
2021/12/20 05:25:22;;;;;;;3.45;1.02;;;4.20;81.00;;;;;;5027484;28;20627;-73
2021/12/20 05:27:49;;;;;;;3.25;1.00;;;4.20;80.90;;;;;;5027248;28;20049;-74
2021/12/20 05:30:17;;;;;;;1.67;1.00;;;4.20;80.90;;;;;;5028726;28;20081;-75
2021/12/20 05:32:44;;;;;;;2.63;1.13;;;4.20;80.80;;;;;;5029256;28;20073;-74
2021/12/20 05:35:14;;;;;;;2.70;1.40;;;4.20;80.80;;;;;;5029007;28;20455;-74
2021/12/20 05:37:41;;;;;;;3.13;1.17;;;4.10;80.70;;;;;;5032180;28;20045;-74
2021/12/20 05:40:11;;;;;;;3.17;1.08;;;4.10;80.70;;;;;;5033112;28;20041;-76
2021/12/20 05:42:40;;;;;;;2.47;1.00;;;4.10;80.80;;;;;;5032348;28;20048;-76
2021/12/20 05:45:08;;;;;;;2.63;1.15;;;4.00;80.80;;;;;;5032355;28;20076;-75
2021/12/20 05:47:35;;;;;;;3.90;1.67;;;4.00;80.80;;;;;;5033163;28;20495;-76
2021/12/20 05:50:03;;;;;;;4.55;1.42;;;4.00;80.80;;;;;;5032700;28;20049;-73
2021/12/20 05:52:30;;;;;;;3.20;1.55;;;3.90;80.70;;;;;;5016389;28;20135;-73
2021/12/20 05:54:57;;;;;;;4.18;1.58;;;3.90;80.80;;;;;;5014427;28;20167;-74
2021/12/20 05:57:24;;;;;;;7.50;1.25;;;3.90;80.80;;;;;;5032981;28;20045;-74
2021/12/20 05:59:53;;;;;;;7.13;1.45;;;3.90;80.80;;;;;;5031701;28;20069;-75
2021/12/20 06:02:20;;;;;;;2.50;1.10;;;3.80;80.70;;;;;;5030046;28;20068;-74
2021/12/20 06:04:50;;;;;;;3.20;1.10;;;3.80;80.70;;;;;;5031632;28;20045;-74
2021/12/20 06:07:18;;;;;;;2.67;0.90;;;3.70;80.70;;;;;;5033475;28;20106;-76
2021/12/20 06:09:45;;;;;;;1.98;0.88;;;3.70;80.60;;;;;;5032514;28;20111;-76
2021/12/20 06:12:12;;;;;;;3.67;1.52;;;3.70;80.60;;;;;;5033519;28;20141;-74
2021/12/20 06:14:39;;;;;;;3.42;1.30;;;3.70;80.60;;;;;;5032741;28;20399;-76
2021/12/20 06:17:08;;;;;;;2.28;1.20;;;3.70;80.50;;;;;;5031459;28;20049;-76
2021/12/20 06:19:35;;;;;;;7.10;1.52;;;3.70;80.50;;;;;;5033188;28;20048;-74
2021/12/20 06:22:04;;;;;;;5.72;1.58;;;3.70;80.40;;;;;;5032128;28;20037;-75
2021/12/20 06:24:31;;;;;;;5.45;1.88;;;3.60;80.50;;;;;;5032289;28;20049;-74
2021/12/20 06:26:58;;;;;;;9.95;2.50;;;3.50;80.50;;;;;;5031642;28;20049;-76
2021/12/20 06:29:25;;;;;;;8.02;2.25;;;3.50;80.70;;;;;;5033118;28;20049;-76
2021/12/20 06:31:52;;;;;;;6.95;2.17;;;3.50;80.70;;;;;;5032405;28;20057;-73
2021/12/20 06:34:20;;;;;;;5.80;1.58;;;3.50;80.60;;;;;;5032009;28;20050;-75
2021/12/20 06:36:47;;;;;;;5.47;1.40;;;3.50;80.70;;;;;;5032536;28;20045;-74
2021/12/20 06:39:14;;;;;;;4.43;2.00;;;3.50;80.60;;;;;;5030370;28;20041;-76
2021/12/20 06:41:41;;;;;;;8.13;1.63;;;3.40;80.60;;;;;;5030226;28;20068;-76
2021/12/20 06:44:08;;;;;;;4.35;1.92;;;3.40;80.50;;;;;;5030309;28;20050;-75
2021/12/20 06:46:40;;;;;;;5.35;1.70;;;3.40;80.40;;;;;;5029710;28;20095;-74
2021/12/20 06:49:09;;;;;;;3.70;1.73;;;3.40;80.40;;;;;;5030643;28;20511;-73
2021/12/20 06:51:40;;;;;;;6.35;1.67;;;3.30;80.50;;;;;;5030897;28;20037;-75
2021/12/20 06:54:07;;;;;;;3.42;1.50;;;3.30;80.40;;;;;;5030464;28;20045;-74
2021/12/20 06:56:39;;;;;;;6.93;1.83;;;3.30;80.40;;;;;;5029478;28;20048;-73
2021/12/20 06:59:06;;;;;;;3.00;0.93;;;3.30;80.40;;;;;;5029781;28;20072;-74
2021/12/20 07:01:33;;;;;;;4.18;1.50;;;3.40;80.30;;;;;;5027496;28;20507;-76
2021/12/20 07:04:01;;;;;;;5.10;2.00;;;3.30;80.30;;;;;;5030283;28;20049;-74
2021/12/20 07:06:29;;;;;;;3.90;1.40;;;3.40;80.40;;;;;;5029915;28;20046;-75
2021/12/20 07:08:58;;;;;;;7.90;2.80;;;3.40;80.50;;;;;;5029088;28;20048;-76
2021/12/20 07:11:25;;;;;;;6.05;1.25;;;3.40;80.60;;;;;;5030425;28;20037;-73
2021/12/20 07:13:53;;;;;;;3.42;1.35;;;3.40;80.60;;;;;;5029488;28;20415;-73
2021/12/20 07:16:21;;;;;;;8.70;1.42;;;3.40;80.80;;;;;;5029936;28;20125;-73
2021/12/20 07:18:48;;;;;;;4.10;1.45;;;3.40;80.90;;;;;;5032024;28;20049;-74
2021/12/20 07:21:15;;;;;;;2.92;1.33;;;3.30;81.00;;;;;;5032129;28;20056;-75
2021/12/20 07:23:43;;;;;;;2.55;1.13;;;3.30;80.90;;;;;;5028078;28;20376;-74
2021/12/20 07:26:12;;;;;;;2.88;1.30;;;3.30;81.00;;;;;;5028922;28;20443;-76
2021/12/20 07:28:41;;;;;;;2.40;1.27;;;3.30;81.00;;;;;;5031188;28;20048;-76
2021/12/20 07:31:08;;;;;;;4.22;1.10;;;3.30;80.90;;;;;;5031257;28;20057;-74
2021/12/20 07:33:35;;;;;;;2.70;1.23;;;3.30;80.90;;;;;;5030091;28;20483;-74
2021/12/20 07:36:02;;;;;;;4.30;1.65;;;3.30;80.90;;;;;;5031244;28;20046;-75
2021/12/20 07:38:29;;;;;;;2.70;1.50;;;3.20;80.90;;;;;;5031118;28;20048;-75
2021/12/20 07:40:57;;;;;;;6.13;1.38;;;3.20;81.00;;;;;;5031369;28;20127;-74
2021/12/20 07:43:25;;;;;;;5.25;1.88;;;3.20;80.80;;;;;;5030167;28;20399;-75
2021/12/20 07:45:52;;;;;;;3.15;1.27;;;3.20;80.90;;;;;;5030709;28;20067;-75
2021/12/20 07:48:21;;;;;;;4.38;1.80;;;3.20;80.80;;;;;;5029998;28;20052;-75
2021/12/20 07:50:49;;;;;;;6.65;1.23;;;3.10;80.80;;;;;;5029589;28;20040;-74
2021/12/20 07:53:16;;;;;;;3.38;1.52;;;3.10;80.80;;;;;;5030603;28;20041;-73
2021/12/20 07:55:43;;;;;;;6.43;2.25;;;3.10;80.90;;;;;;5030224;28;20056;-73
2021/12/20 07:58:10;;;;;;;6.97;2.13;;;3.10;81.00;;;;;;5030462;28;20073;-74
2021/12/20 08:00:39;;;;;;;2.80;1.05;;;3.10;81.10;;;;;;5028608;28;20045;-75
2021/12/20 08:03:06;;;;;;;6.30;1.27;;;3.10;81.30;;;;;;5030466;28;20053;-75
2021/12/20 08:05:34;;;;;;;6.30;1.48;;;3.20;81.50;;;;;;5030989;28;20041;-75
2021/12/20 08:08:01;;;;;;;2.55;1.20;;;3.20;81.60;;;;;;5029667;28;20067;-76
2021/12/20 08:10:29;;;;;;;5.28;1.88;;;3.20;81.70;;;;;;5030389;28;20119;-75
2021/12/20 08:12:57;;;;;;;5.05;2.25;;;3.20;81.70;;;;;;5030802;28;20080;-75
2021/12/20 08:15:26;;;;;;;8.18;1.70;;;3.20;81.90;;;;;;5030143;28;20137;-74
2021/12/20 08:17:56;;;;;;;3.53;1.50;;;3.20;82.00;;;;;;5029285;28;20045;-73
2021/12/20 08:20:23;;;;;;;4.10;1.80;;;3.20;82.00;;;;;;5028744;28;20134;-74
2021/12/20 08:22:50;;;;;;;10.00;2.20;;;3.20;81.90;;;;;;5028422;28;20045;-74
2021/12/20 08:25:19;;;;;;;4.65;1.08;;;3.20;82.00;;;;;;5027892;28;20128;-74
2021/12/20 08:27:46;;;;;;;4.85;2.00;;;3.20;82.10;;;;;;5029165;28;20114;-75
2021/12/20 08:30:14;;;;;;;3.95;1.65;;;3.20;82.10;;;;;;5028976;28;20045;-74
2021/12/20 08:32:41;;;;;;;4.97;1.52;;;3.20;82.10;;;;;;5028126;28;20410;-75
2021/12/20 08:35:11;;;;;;;4.47;1.20;;;3.20;82.10;;;;;;5028191;28;20045;-73
2021/12/20 08:37:39;;;;;;;4.95;0.93;;;3.20;82.30;;;;;;5028481;28;20050;-75
2021/12/20 08:40:08;;;;;;;4.25;1.63;;;3.20;82.20;;;;;;5028224;28;20057;-74
2021/12/20 08:42:35;;;;;;;6.55;1.83;;;3.20;82.10;;;;;;5028278;28;20133;-74
2021/12/20 08:45:02;;;;;;;9.93;3.75;;;3.20;82.10;;;;;;5027689;28;20041;-73
2021/12/20 08:47:32;;;;;;;11.60;4.75;;;3.20;82.20;;;;;;5028084;28;20046;-76
2021/12/20 08:49:59;;;;;;;7.25;2.70;;;3.20;82.30;;;;;;5028838;28;20041;-76
2021/12/20 08:52:27;;;;;;;11.35;3.40;;;3.20;82.20;;;;;;5028153;28;20046;-74
2021/12/20 08:54:54;;;;;;;6.10;2.45;;;3.20;82.20;;;;;;5028531;28;20053;-73
2021/12/20 08:57:22;;;;;;;10.00;2.65;;;3.20;82.50;;;;;;5029024;28;20049;-73
2021/12/20 08:59:49;;;;;;;6.57;2.10;;;3.20;82.60;;;;;;5030214;28;20045;-76
2021/12/20 09:02:16;;;;;;;6.82;2.30;;;3.20;82.40;;;;;;5011015;28;20414;-70
2021/12/20 09:04:43;;;;;;;2.95;1.55;;;3.30;82.40;;;;;;5029716;28;20049;-70
2021/12/20 09:07:15;;;;;;;5.75;1.80;;;3.30;82.60;;;;;;5033148;28;20058;-72
2021/12/20 09:09:46;;;;;;;4.28;1.40;;;3.30;82.50;;;;;;5034240;28;20049;-71
2021/12/20 09:12:15;;;;;;;3.03;0.95;;;3.30;82.40;;;;;;5034783;28;20418;-70
2021/12/20 09:14:43;;;;;;;5.35;2.40;;;3.20;82.30;;;;;;5034255;28;20099;-70
2021/12/20 09:17:10;;;;;;;7.15;2.50;;;3.20;82.40;;;;;;5033366;28;20495;-70
2021/12/20 09:19:37;;;;;;;9.68;1.67;;;3.20;82.50;;;;;;5034077;28;20045;-71
2021/12/20 09:22:06;;;;;;;3.90;1.40;;;3.20;82.40;;;;;;5033806;28;20041;-70
2021/12/20 09:24:33;;;;;;;4.72;1.60;;;3.20;82.50;;;;;;5033127;28;20064;-69
2021/12/20 09:27:02;;;;;;;3.85;1.42;;;3.20;82.50;;;;;;5033511;28;20064;-70
2021/12/20 09:29:29;;;;;;;1.08;0.98;;;3.20;82.50;;;;;;5033853;28;20081;-70
2021/12/20 09:31:56;;;;;;;3.17;1.38;;;3.20;82.50;;;;;;5033412;28;20041;-71
2021/12/20 09:34:23;;;;;;;7.65;1.80;;;3.30;82.40;;;;;;5033482;28;20065;-69
2021/12/20 09:36:52;;;;;;;5.18;1.55;;;3.30;82.60;;;;;;5031051;28;20076;-70
2021/12/20 09:39:21;;;;;;;3.08;1.05;;;3.30;82.60;;;;;;5033261;28;20042;-70
2021/12/20 09:42:03;;;;;;;6.55;2.22;;;3.40;82.50;;;;;;5031018;28;20042;-70
2021/12/20 09:44:33;;;;;;;2.80;1.40;;;3.40;82.40;;;;;;5033430;28;20041;-69
2021/12/20 09:47:02;;;;;;;11.63;1.60;;;3.50;82.40;;;;;;5032908;28;20045;-71
2021/12/20 09:49:31;;;;;;;2.42;1.05;;;3.50;82.30;;;;;;5032053;28;20549;-71
2021/12/20 09:51:58;;;;;;;12.23;1.63;;;3.50;82.30;;;;;;5032679;28;20527;-70
2021/12/20 09:54:26;;;;;;;4.40;1.23;;;3.50;82.40;;;;;;5032515;28;20045;-70
2021/12/20 09:56:55;;;;;;;4.65;1.42;;;3.50;82.50;;;;;;5032732;28;20060;-70
2021/12/20 09:59:24;;;;;;;2.83;1.15;;;3.60;82.40;;;;;;5030164;28;20053;-71
2021/12/20 10:01:53;;;;;;;7.43;1.85;;;3.60;82.40;;;;;;5028391;28;20033;-71
2021/12/20 10:04:22;;;;;;;4.38;1.73;;;3.70;82.50;;;;;;5030855;28;20557;-71
2021/12/20 10:06:52;;;;;;;7.38;2.08;;;3.70;82.40;;;;;;5029805;28;20061;-71
2021/12/20 10:09:26;;;;;;;8.02;2.40;;;3.70;82.40;;;;;;4991622;28;20117;-69
2021/12/20 10:12:11;;;;;;;4.97;2.60;;;3.70;82.30;;;;;;4989762;28;20050;-70
2021/12/20 10:14:53;;;;;;;6.47;1.55;;;3.70;82.30;;;;;;4991624;28;20085;-70
2021/12/20 10:17:22;;;;;;;4.72;1.83;;;3.80;82.40;;;;;;4991152;28;20133;-70
2021/12/20 10:19:50;;;;;;;6.60;1.40;;;3.80;82.20;;;;;;4990828;28;20077;-70
2021/12/20 10:22:29;;;;;;;3.20;1.38;;;3.80;82.30;;;;;;4991608;28;20117;-70
2021/12/20 10:24:57;;;;;;;6.47;1.90;;;3.80;82.20;;;;;;4992421;28;20042;-70
2021/12/20 10:27:33;;;;;;;6.85;1.77;;;3.90;82.30;;;;;;4990215;28;20050;-69
2021/12/20 10:30:00;;;;;;;5.53;1.80;;;3.90;82.30;;;;;;4991282;28;20043;-70
2021/12/20 10:32:42;;;;;;;9.82;1.90;;;3.90;82.40;;;;;;4990543;28;20496;-70
2021/12/20 10:35:29;;;;;;;4.25;1.50;;;3.90;82.30;;;;;;4987651;28;20046;-70
2021/12/20 10:37:57;;;;;;;7.60;2.10;;;3.90;82.30;;;;;;4989892;28;20050;-70
2021/12/20 10:40:25;;;;;;;4.55;1.60;;;4.00;82.30;;;;;;4992461;28;20128;-70
2021/12/20 10:42:53;;;;;;;5.07;1.15;;;4.00;82.20;;;;;;4992423;28;20058;-70
2021/12/20 10:45:21;;;;;;;2.65;1.48;;;4.10;82.10;;;;;;4992992;28;20050;-71
2021/12/20 10:47:51;;;;;;;6.05;1.88;;;4.20;81.90;;;;;;4991728;28;20128;-70
2021/12/20 10:50:24;;;;;;;5.90;1.67;;;4.20;81.70;;;;;;4991956;28;20043;-70
2021/12/20 10:52:51;;;;;;;7.38;1.83;;;4.20;81.70;;;;;;4992428;28;20484;-70
2021/12/20 10:55:37;;;;;;;2.38;1.02;;;4.20;81.70;;;;;;4992163;28;20100;-70
2021/12/20 10:58:29;;;;;;;3.78;1.13;;;4.20;81.70;;;;;;4992244;28;20050;-70
2021/12/20 11:04:19;;;;;;;7.63;2.10;;;4.30;81.20;;;;;;4982101;28;20096;-70
2021/12/20 11:09:35;;;;;;;7.47;1.48;;;4.40;81.20;;;;;;4992351;28;20061;-70
2021/12/20 11:12:04;;;;;;;12.77;1.55;;;4.40;81.00;;;;;;4991663;28;20670;-70
2021/12/20 11:14:34;;;;;;;4.88;1.75;;;4.40;80.90;;;;;;4992770;28;20046;-71
2021/12/20 11:17:03;;;;;;;9.40;1.65;;;4.40;80.80;;;;;;4992432;28;20068;-71
2021/12/20 11:19:33;;;;;;;11.57;1.88;;;4.40;80.80;;;;;;4992392;28;20053;-73
2021/12/20 11:22:05;;;;;;;5.45;1.42;;;4.40;80.80;;;;;;4991764;28;20042;-70
2021/12/20 11:24:36;;;;;;;4.50;1.15;;;4.50;80.70;;;;;;4992163;28;20061;-70
2021/12/20 11:27:05;;;;;;;7.47;2.13;;;4.50;80.50;;;;;;5007472;28;20088;-70
2021/12/20 11:29:34;;;;;;;6.00;1.27;;;4.50;80.60;;;;;;4991141;28;20137;-70
2021/12/20 11:32:02;;;;;;;4.20;1.15;;;4.50;80.50;;;;;;4991324;28;20042;-72
2021/12/20 11:34:34;;;;;;;6.10;1.23;;;4.50;80.30;;;;;;4992528;28;20121;-69
2021/12/20 11:37:01;;;;;;;5.78;1.02;;;4.50;80.20;;;;;;4991082;28;20096;-71
2021/12/20 11:39:29;;;;;;;5.10;1.77;;;4.60;79.90;;;;;;4990117;28;20042;-70
2021/12/20 11:41:56;;;;;;;5.53;1.15;;;4.60;80.00;;;;;;4988917;28;20054;-71
2021/12/20 11:44:27;;;;;;;3.08;0.75;;;4.60;79.70;;;;;;4990582;28;20121;-71
2021/12/20 11:47:07;;;;;;;;;;;4.60;79.80;;;;;;4989979;28;20058;-71
2021/12/20 11:49:36;;;;;;;3.08;1.02;;;4.70;79.40;;;;;;4989207;28;19952;-71
2021/12/20 11:52:13;;;;;;;3.97;1.50;;;4.70;79.20;;;;;;4990515;28;20054;-71
2021/12/20 11:54:46;;;;;;;4.15;1.40;;;4.70;79.20;;;;;;4990223;28;21132;-71
2021/12/20 11:57:33;;;;;;;9.98;2.08;;;4.70;79.30;;;;;;4989754;28;20046;-70
2021/12/20 12:00:03;;;;;;;3.35;0.80;;;4.70;79.00;;;;;;4989669;28;20046;-71
2021/12/20 12:02:42;;;;;;;4.97;1.00;;;4.70;78.60;;;;;;4987861;28;20046;-71
2021/12/20 12:05:12;;;;;;;2.83;0.60;;;4.70;78.10;;;;;;4989515;28;20051;-71
2021/12/20 12:07:41;;;;;;;1.83;0.80;;;4.70;77.50;;;;;;5001882;28;20064;-70
2021/12/20 12:10:11;;;;;;;3.88;0.50;;;4.70;77.90;;;;;;5029268;28;20044;-72
2021/12/20 12:12:42;;;;;;;6.80;0.90;;;4.70;77.50;;;;;;5027939;28;20143;-71
2021/12/20 12:15:12;;;;;;;3.70;0.80;;;4.70;77.40;;;;;;5028191;28;20068;-71
2021/12/20 12:17:57;;;;;;;3.78;1.00;;;4.70;77.00;;;;;;5030137;28;20041;-70
2021/12/20 12:20:44;;;;;;;1.70;0.63;;;4.70;76.90;;;;;;5012205;28;20080;-70
2021/12/20 12:23:20;;;;;;;2.42;0.70;;;4.70;76.80;;;;;;5029763;28;20037;-70
2021/12/20 12:25:50;;;;;;;2.58;0.63;;;4.80;76.90;;;;;;5029977;28;20073;-71
2021/12/20 12:28:19;;;;;;;3.80;1.15;;;4.80;76.50;;;;;;5031063;28;20502;-70
2021/12/20 12:30:57;;;;;;;3.40;0.68;;;4.80;76.40;;;;;;5029861;28;20468;-70
2021/12/20 12:33:31;;;;;;;0.77;0.28;;;4.80;75.70;;;;;;5024836;28;20041;-70
2021/12/20 12:36:23;;;;;;;1.65;0.75;;;4.80;75.70;;;;;;5030304;28;20494;-70
2021/12/20 12:38:56;;;;;;;3.95;0.60;;;4.80;75.50;;;;;;5012583;28;20398;-70
2021/12/20 12:41:25;;;;;;;2.83;0.65;;;4.90;75.50;;;;;;5028969;28;20046;-70
2021/12/20 12:44:15;;;;;;;3.15;0.77;;;4.80;75.30;;;;;;5030302;28;20042;-70
2021/12/20 12:46:53;;;;;;;4.97;0.65;;;4.90;75.00;;;;;;5029280;28;20465;-69
2021/12/20 12:49:49;;;;;;;1.88;0.70;;;4.90;75.10;;;;;;5029708;28;20049;-70
2021/12/20 12:52:41;;;;;;;3.08;0.55;;;4.90;74.70;;;;;;5016733;28;20144;-71
2021/12/20 12:55:26;;;;;;;1.27;0.65;;;4.90;74.70;;;;;;5029511;28;20045;-71
2021/12/20 12:57:54;;;;;;;6.97;1.48;;;4.90;74.40;;;;;;5029240;28;20045;-71
2021/12/20 13:00:25;;;;;;;2.10;0.63;;;4.90;74.70;;;;;;5027410;28;20124;-70
2021/12/20 13:02:57;;;;;;;2.55;0.57;;;4.90;74.80;;;;;;5029680;28;20033;-71
2021/12/20 13:05:26;;;;;;;5.38;1.15;;;4.90;74.90;;;;;;5029457;28;20124;-70
2021/12/20 13:07:56;;;;;;;2.50;0.68;;;4.90;74.80;;;;;;5030017;28;20489;-70
2021/12/20 13:10:30;;;;;;;2.50;0.70;;;4.90;74.60;;;;;;5026248;28;20449;-71
2021/12/20 13:13:03;;;;;;;2.75;0.50;;;4.90;74.30;;;;;;5030144;28;20052;-71
2021/12/20 13:15:35;;;;;;;2.35;0.65;;;4.90;74.50;;;;;;5028053;28;20129;-71
2021/12/20 13:18:08;;;;;;;4.22;0.90;;;4.90;74.70;;;;;;5027748;28;20068;-71
2021/12/20 13:20:42;;;;;;;5.07;1.00;;;4.90;74.50;;;;;;5027605;28;20048;-71
2021/12/20 13:23:13;;;;;;;2.92;0.60;;;4.90;74.60;;;;;;5025650;28;20438;-71
2021/12/20 13:25:46;;;;;;;4.38;0.88;;;4.90;74.20;;;;;;5027884;28;20038;-70
2021/12/20 13:28:17;;;;;;;5.30;1.05;;;4.90;74.50;;;;;;5027357;28;20059;-71